createdAt,value
2017-06-11T00:00:03.926Z,24.89
2017-06-11T00:00:44.382Z,24.88
2017-06-11T00:01:24.837Z,24.88
2017-06-11T00:02:05.292Z,24.88
2017-06-11T00:02:45.755Z,24.89
2017-06-11T00:03:26.210Z,24.85
2017-06-11T00:04:06.672Z,24.92
2017-06-11T00:04:47.135Z,24.92
2017-06-11T00:05:27.601Z,24.85
2017-06-11T00:06:08.060Z,24.89
2017-06-11T00:06:48.518Z,24.86
2017-06-11T00:07:28.974Z,24.85
2017-06-11T00:08:09.431Z,24.82
2017-06-11T00:08:49.891Z,24.81
2017-06-11T00:09:30.359Z,24.85
2017-06-11T00:10:10.811Z,24.78
2017-06-11T00:10:51.268Z,24.88
2017-06-11T00:11:31.724Z,24.86
2017-06-11T00:12:12.184Z,24.84
2017-06-11T00:12:52.637Z,24.85
2017-06-11T00:13:33.093Z,24.84
2017-06-11T00:14:13.550Z,24.88
2017-06-11T00:14:54.005Z,24.77
2017-06-11T00:15:34.472Z,24.85
2017-06-11T00:16:14.931Z,24.86
2017-06-11T00:16:55.390Z,24.85
2017-06-11T00:17:35.844Z,24.82
2017-06-11T00:18:16.302Z,24.79
2017-06-11T00:18:56.762Z,24.78
2017-06-11T00:19:37.282Z,24.79
2017-06-11T00:20:17.740Z,24.84
2017-06-11T00:20:58.198Z,24.77
2017-06-11T00:21:38.659Z,24.84
2017-06-11T00:22:19.114Z,24.79
2017-06-11T00:22:59.566Z,24.85
2017-06-11T00:23:40.028Z,24.81
2017-06-11T00:24:20.486Z,24.82
2017-06-11T00:25:00.940Z,24.79
2017-06-11T00:25:41.400Z,24.79
2017-06-11T00:26:21.858Z,24.85
2017-06-11T00:27:02.316Z,24.82
2017-06-11T00:27:42.772Z,24.79
2017-06-11T00:28:23.232Z,24.81
2017-06-11T00:29:03.693Z,24.81
2017-06-11T00:29:44.138Z,24.78
2017-06-11T00:30:24.599Z,24.78
2017-06-11T00:31:05.058Z,24.74
2017-06-11T00:31:45.516Z,24.77
2017-06-11T00:32:25.974Z,24.78
2017-06-11T00:33:06.440Z,24.75
2017-06-11T00:33:46.900Z,24.78
2017-06-11T00:34:27.357Z,24.75
2017-06-11T00:35:07.815Z,24.77
2017-06-11T00:35:48.272Z,24.75
2017-06-11T00:36:28.732Z,24.69
2017-06-11T00:37:09.194Z,24.71
2017-06-11T00:37:49.652Z,24.69
2017-06-11T00:38:30.106Z,24.69
2017-06-11T00:39:10.565Z,24.77
2017-06-11T00:39:51.021Z,24.75
2017-06-11T00:40:31.486Z,24.71
2017-06-11T00:41:11.935Z,24.79
2017-06-11T00:41:52.392Z,24.71
2017-06-11T00:42:32.850Z,24.68
2017-06-11T00:43:13.297Z,24.71
2017-06-11T00:43:53.752Z,24.65
2017-06-11T00:44:34.210Z,24.66
2017-06-11T00:45:14.665Z,24.75
2017-06-11T00:45:55.132Z,24.66
2017-06-11T00:46:35.590Z,24.69
2017-06-11T00:47:16.047Z,24.69
2017-06-11T00:47:56.510Z,24.66
2017-06-11T00:48:36.996Z,24.65
2017-06-11T00:49:17.454Z,24.71
2017-06-11T00:49:57.906Z,24.65
2017-06-11T00:50:38.361Z,24.68
2017-06-11T00:51:18.846Z,24.71
2017-06-11T00:51:59.277Z,24.66
2017-06-11T00:52:39.737Z,24.68
2017-06-11T00:53:20.198Z,24.69
2017-06-11T00:54:00.649Z,24.65
2017-06-11T00:54:41.091Z,24.69
2017-06-11T00:55:21.546Z,24.71
2017-06-11T00:56:02.018Z,24.68
2017-06-11T00:56:42.444Z,24.66
2017-06-11T00:57:22.900Z,24.63
2017-06-11T00:58:03.352Z,24.68
2017-06-11T00:58:43.799Z,24.66
2017-06-11T00:59:24.257Z,24.63
2017-06-11T01:00:04.713Z,24.62
2017-06-11T01:00:45.170Z,24.68
2017-06-11T01:01:25.620Z,24.61
2017-06-11T01:02:06.067Z,24.63
2017-06-11T01:02:46.528Z,24.69
2017-06-11T01:03:26.983Z,24.68
2017-06-11T01:04:07.442Z,24.74
2017-06-11T01:04:47.907Z,24.63
2017-06-11T01:05:28.366Z,24.65
2017-06-11T01:06:08.816Z,24.68
2017-06-11T01:06:49.267Z,24.68
2017-06-11T01:07:29.723Z,24.63
2017-06-11T01:08:10.180Z,24.66
2017-06-11T01:08:50.639Z,24.62
2017-06-11T01:09:31.100Z,24.68
2017-06-11T01:10:11.570Z,24.65
2017-06-11T01:10:52.031Z,24.63
2017-06-11T01:11:32.503Z,24.66
2017-06-11T01:12:12.940Z,24.62
2017-06-11T01:12:53.397Z,24.65
2017-06-11T01:13:33.851Z,24.66
2017-06-11T01:14:14.306Z,24.63
2017-06-11T01:14:54.761Z,24.61
2017-06-11T01:15:35.211Z,24.59
2017-06-11T01:16:15.669Z,24.65
2017-06-11T01:16:56.123Z,24.63
2017-06-11T01:17:36.576Z,24.61
2017-06-11T01:18:17.069Z,24.56
2017-06-11T01:18:57.528Z,24.56
2017-06-11T01:19:37.994Z,24.56
2017-06-11T01:20:18.436Z,24.61
2017-06-11T01:20:58.892Z,24.61
2017-06-11T01:21:39.346Z,24.58
2017-06-11T01:22:19.798Z,24.61
2017-06-11T01:23:00.265Z,24.63
2017-06-11T01:23:40.711Z,24.51
2017-06-11T01:24:21.165Z,24.62
2017-06-11T01:25:01.625Z,24.61
2017-06-11T01:25:42.089Z,24.61
2017-06-11T01:26:22.558Z,24.61
2017-06-11T01:27:03.013Z,24.55
2017-06-11T01:27:43.472Z,24.62
2017-06-11T01:28:23.936Z,24.55
2017-06-11T01:29:04.383Z,24.59
2017-06-11T01:29:44.848Z,24.53
2017-06-11T01:30:25.299Z,24.58
2017-06-11T01:31:05.775Z,24.65
2017-06-11T01:31:46.233Z,24.62
2017-06-11T01:32:26.689Z,24.62
2017-06-11T01:33:07.152Z,24.51
2017-06-11T01:33:47.608Z,24.48
2017-06-11T01:34:28.064Z,24.58
2017-06-11T01:35:08.527Z,24.58
2017-06-11T01:35:48.980Z,24.53
2017-06-11T01:36:29.436Z,24.51
2017-06-11T01:37:09.895Z,24.51
2017-06-11T01:37:50.353Z,24.53
2017-06-11T01:38:30.809Z,24.61
2017-06-11T01:39:11.268Z,24.51
2017-06-11T01:39:51.725Z,24.48
2017-06-11T01:40:32.184Z,24.51
2017-06-11T01:41:12.642Z,24.55
2017-06-11T01:41:53.106Z,24.46
2017-06-11T01:42:33.565Z,24.53
2017-06-11T01:43:14.023Z,24.51
2017-06-11T01:43:54.474Z,24.47
2017-06-11T01:44:34.929Z,24.48
2017-06-11T01:45:15.369Z,24.48
2017-06-11T01:45:55.829Z,24.58
2017-06-11T01:46:36.288Z,24.5
2017-06-11T01:47:16.755Z,24.47
2017-06-11T01:47:57.209Z,24.56
2017-06-11T01:48:37.667Z,24.51
2017-06-11T01:49:18.128Z,24.51
2017-06-11T01:49:58.586Z,24.56
2017-06-11T01:50:39.047Z,24.55
2017-06-11T01:51:19.504Z,24.44
2017-06-11T01:51:59.961Z,24.5
2017-06-11T01:52:40.417Z,24.51
2017-06-11T01:53:20.874Z,24.44
2017-06-11T01:54:01.329Z,24.46
2017-06-11T01:54:41.784Z,24.53
2017-06-11T01:55:22.227Z,24.48
2017-06-11T01:56:02.682Z,24.46
2017-06-11T01:56:43.140Z,24.47
2017-06-11T01:57:23.602Z,24.55
2017-06-11T01:58:04.054Z,24.47
2017-06-11T01:58:44.514Z,24.48
2017-06-11T01:59:24.972Z,24.4
2017-06-11T02:00:05.447Z,24.5
2017-06-11T02:00:45.912Z,24.47
2017-06-11T02:01:26.369Z,24.46
2017-06-11T02:02:06.823Z,24.4
2017-06-11T02:02:47.284Z,24.43
2017-06-11T02:03:27.745Z,24.46
2017-06-11T02:04:08.182Z,24.44
2017-06-11T02:04:48.654Z,24.46
2017-06-11T02:05:29.106Z,24.5
2017-06-11T02:06:09.568Z,24.46
2017-06-11T02:06:50.029Z,24.5
2017-06-11T02:07:30.493Z,24.48
2017-06-11T02:08:10.955Z,24.46
2017-06-11T02:08:51.415Z,24.47
2017-06-11T02:09:31.873Z,24.48
2017-06-11T02:10:12.329Z,24.44
2017-06-11T02:10:52.785Z,24.46
2017-06-11T02:11:33.242Z,24.43
2017-06-11T02:12:13.705Z,24.48
2017-06-11T02:12:54.169Z,24.43
2017-06-11T02:13:34.612Z,24.43
2017-06-11T02:14:15.073Z,24.41
2017-06-11T02:14:55.534Z,24.41
2017-06-11T02:15:35.988Z,24.47
2017-06-11T02:16:16.456Z,24.36
2017-06-11T02:16:56.912Z,24.43
2017-06-11T02:17:37.402Z,24.41
2017-06-11T02:18:17.858Z,24.46
2017-06-11T02:18:58.317Z,24.34
2017-06-11T02:19:38.778Z,24.41
2017-06-11T02:20:19.234Z,24.43
2017-06-11T02:20:59.695Z,24.43
2017-06-11T02:21:40.156Z,24.43
2017-06-11T02:22:20.611Z,24.46
2017-06-11T02:23:01.066Z,24.44
2017-06-11T02:23:41.529Z,24.44
2017-06-11T02:24:21.981Z,24.36
2017-06-11T02:25:02.439Z,24.41
2017-06-11T02:25:42.901Z,24.44
2017-06-11T02:26:23.357Z,24.32
2017-06-11T02:27:03.813Z,24.41
2017-06-11T02:27:44.269Z,24.41
2017-06-11T02:28:24.730Z,24.4
2017-06-11T02:29:05.196Z,24.41
2017-06-11T02:29:45.639Z,24.4
2017-06-11T02:30:26.103Z,24.41
2017-06-11T02:31:06.563Z,24.4
2017-06-11T02:31:47.023Z,24.41
2017-06-11T02:32:27.496Z,24.4
2017-06-11T02:33:07.956Z,24.37
2017-06-11T02:33:48.411Z,24.38
2017-06-11T02:34:28.869Z,24.36
2017-06-11T02:35:09.329Z,24.38
2017-06-11T02:35:49.792Z,24.38
2017-06-11T02:36:30.269Z,24.37
2017-06-11T02:37:10.703Z,24.36
2017-06-11T02:37:51.159Z,24.43
2017-06-11T02:38:31.629Z,24.44
2017-06-11T02:39:12.086Z,24.41
2017-06-11T02:39:52.537Z,24.37
2017-06-11T02:40:32.994Z,24.46
2017-06-11T02:41:13.451Z,24.46
2017-06-11T02:41:53.910Z,24.43
2017-06-11T02:42:34.377Z,24.38
2017-06-11T02:43:14.837Z,24.34
2017-06-11T02:43:55.293Z,24.34
2017-06-11T02:44:35.753Z,24.43
2017-06-11T02:45:16.214Z,24.4
2017-06-11T02:45:56.670Z,24.32
2017-06-11T02:46:37.163Z,24.37
2017-06-11T02:47:17.620Z,24.38
2017-06-11T02:47:58.081Z,24.4
2017-06-11T02:48:38.535Z,24.31
2017-06-11T02:49:18.993Z,24.36
2017-06-11T02:49:59.449Z,24.34
2017-06-11T02:50:39.907Z,24.37
2017-06-11T02:51:20.367Z,24.32
2017-06-11T02:52:00.829Z,24.38
2017-06-11T02:52:41.285Z,24.38
2017-06-11T02:53:21.734Z,24.34
2017-06-11T02:54:02.200Z,24.36
2017-06-11T02:54:42.659Z,24.36
2017-06-11T02:55:23.117Z,24.29
2017-06-11T02:56:03.574Z,24.31
2017-06-11T02:56:44.030Z,24.31
2017-06-11T02:57:24.487Z,24.34
2017-06-11T02:58:04.944Z,24.41
2017-06-11T02:58:45.437Z,24.31
2017-06-11T02:59:25.864Z,24.29
2017-06-11T03:00:06.321Z,24.4
2017-06-11T03:00:46.777Z,24.4
2017-06-11T03:01:27.238Z,24.31
2017-06-11T03:02:07.689Z,24.31
2017-06-11T03:02:48.139Z,24.26
2017-06-11T03:03:28.601Z,24.31
2017-06-11T03:04:09.064Z,24.26
2017-06-11T03:04:49.525Z,24.29
2017-06-11T03:05:29.988Z,24.29
2017-06-11T03:06:10.439Z,24.28
2017-06-11T03:06:50.897Z,24.29
2017-06-11T03:07:31.360Z,24.32
2017-06-11T03:08:11.818Z,24.31
2017-06-11T03:08:52.274Z,24.26
2017-06-11T03:09:32.730Z,24.29
2017-06-11T03:10:13.202Z,24.25
2017-06-11T03:10:53.662Z,24.22
2017-06-11T03:11:34.124Z,24.21
2017-06-11T03:12:14.584Z,24.18
2017-06-11T03:12:55.042Z,24.31
2017-06-11T03:13:35.497Z,24.28
2017-06-11T03:14:15.957Z,24.21
2017-06-11T03:14:56.404Z,24.24
2017-06-11T03:15:36.861Z,24.29
2017-06-11T03:16:17.321Z,24.24
2017-06-11T03:16:57.796Z,24.29
2017-06-11T03:17:38.235Z,24.26
2017-06-11T03:18:18.689Z,24.28
2017-06-11T03:18:59.151Z,24.25
2017-06-11T03:19:39.604Z,24.22
2017-06-11T03:20:20.072Z,24.25
2017-06-11T03:21:00.525Z,24.25
2017-06-11T03:21:40.979Z,24.14
2017-06-11T03:22:21.436Z,24.25
2017-06-11T03:23:01.916Z,24.24
2017-06-11T03:23:42.345Z,24.18
2017-06-11T03:24:22.792Z,24.28
2017-06-11T03:25:03.238Z,24.22
2017-06-11T03:25:43.713Z,24.22
2017-06-11T03:26:24.169Z,24.16
2017-06-11T03:27:04.634Z,24.28
2017-06-11T03:27:45.086Z,24.25
2017-06-11T03:28:25.549Z,24.18
2017-06-11T03:29:06.009Z,24.31
2017-06-11T03:29:46.467Z,24.22
2017-06-11T03:30:26.925Z,24.24
2017-06-11T03:31:07.390Z,24.18
2017-06-11T03:31:47.857Z,24.19
2017-06-11T03:32:28.321Z,24.26
2017-06-11T03:33:08.789Z,24.24
2017-06-11T03:33:49.245Z,24.29
2017-06-11T03:34:29.694Z,24.22
2017-06-11T03:35:10.156Z,24.31
2017-06-11T03:35:50.613Z,24.25
2017-06-11T03:36:31.064Z,24.24
2017-06-11T03:37:11.530Z,24.16
2017-06-11T03:37:51.999Z,24.25
2017-06-11T03:38:32.460Z,24.28
2017-06-11T03:39:12.928Z,24.16
2017-06-11T03:39:53.388Z,24.21
2017-06-11T03:40:33.847Z,24.22
2017-06-11T03:41:14.306Z,24.22
2017-06-11T03:41:54.764Z,24.19
2017-06-11T03:42:35.217Z,24.31
2017-06-11T03:43:15.679Z,24.28
2017-06-11T03:43:56.135Z,24.21
2017-06-11T03:44:36.593Z,24.24
2017-06-11T03:45:17.045Z,24.24
2017-06-11T03:45:57.511Z,24.24
2017-06-11T03:46:37.969Z,24.19
2017-06-11T03:47:18.426Z,24.18
2017-06-11T03:47:58.898Z,24.19
2017-06-11T03:48:39.354Z,24.22
2017-06-11T03:49:19.815Z,24.21
2017-06-11T03:50:00.279Z,24.19
2017-06-11T03:50:40.767Z,24.16
2017-06-11T03:51:21.217Z,24.16
2017-06-11T03:52:01.680Z,24.19
2017-06-11T03:52:42.132Z,24.24
2017-06-11T03:53:22.598Z,24.22
2017-06-11T03:54:03.069Z,24.19
2017-06-11T03:54:43.499Z,24.18
2017-06-11T03:55:23.961Z,24.21
2017-06-11T03:56:04.414Z,24.14
2017-06-11T03:56:44.875Z,24.19
2017-06-11T03:57:25.339Z,24.22
2017-06-11T03:58:05.787Z,24.16
2017-06-11T03:58:46.242Z,24.16
2017-06-11T03:59:26.691Z,24.21
2017-06-11T04:00:07.155Z,24.16
2017-06-11T04:00:47.609Z,24.09
2017-06-11T04:01:28.064Z,24.11
2017-06-11T04:02:08.505Z,24.24
2017-06-11T04:02:48.960Z,24.18
2017-06-11T04:03:29.420Z,24.16
2017-06-11T04:04:09.880Z,24.13
2017-06-11T04:04:50.329Z,24.13
2017-06-11T04:05:30.792Z,24.18
2017-06-11T04:06:11.253Z,24.13
2017-06-11T04:06:51.721Z,24.16
2017-06-11T04:07:32.182Z,24.11
2017-06-11T04:08:12.663Z,24.19
2017-06-11T04:08:53.102Z,24.13
2017-06-11T04:09:33.590Z,24.09
2017-06-11T04:10:14.022Z,24.16
2017-06-11T04:10:54.482Z,24.09
2017-06-11T04:11:34.940Z,24.1
2017-06-11T04:12:15.402Z,24.13
2017-06-11T04:12:55.859Z,24.11
2017-06-11T04:13:36.315Z,24.09
2017-06-11T04:14:16.773Z,24.13
2017-06-11T04:14:57.225Z,24.03
2017-06-11T04:15:37.679Z,24.11
2017-06-11T04:16:18.147Z,24.1
2017-06-11T04:16:58.605Z,24
2017-06-11T04:17:39.046Z,24.09
2017-06-11T04:18:19.505Z,24.07
2017-06-11T04:18:59.966Z,24.07
2017-06-11T04:19:40.422Z,24.07
2017-06-11T04:20:20.884Z,24.1
2017-06-11T04:21:01.338Z,24.04
2017-06-11T04:21:41.796Z,24.07
2017-06-11T04:22:22.240Z,24.07
2017-06-11T04:23:02.702Z,24.07
2017-06-11T04:23:43.161Z,24.06
2017-06-11T04:24:23.636Z,24.07
2017-06-11T04:25:04.095Z,24.07
2017-06-11T04:25:44.552Z,24.07
2017-06-11T04:26:25.014Z,24.06
2017-06-11T04:27:05.475Z,24.06
2017-06-11T04:27:45.932Z,24.14
2017-06-11T04:28:26.392Z,24.14
2017-06-11T04:29:06.849Z,24.07
2017-06-11T04:29:47.300Z,24.11
2017-06-11T04:30:27.760Z,24.14
2017-06-11T04:31:08.220Z,24.1
2017-06-11T04:31:48.678Z,24.18
2017-06-11T04:32:29.135Z,24.11
2017-06-11T04:33:09.592Z,24.1
2017-06-11T04:33:50.057Z,24.11
2017-06-11T04:34:30.516Z,24.13
2017-06-11T04:35:10.970Z,24.14
2017-06-11T04:35:51.430Z,24.13
2017-06-11T04:36:31.886Z,24.18
2017-06-11T04:37:12.344Z,24.18
2017-06-11T04:37:52.802Z,24.19
2017-06-11T04:38:33.264Z,24.21
2017-06-11T04:39:13.723Z,24.19
2017-06-11T04:39:54.180Z,24.22
2017-06-11T04:40:34.639Z,24.24
2017-06-11T04:41:15.098Z,24.25
2017-06-11T04:41:55.556Z,24.18
2017-06-11T04:42:36.013Z,24.21
2017-06-11T04:43:16.468Z,24.24
2017-06-11T04:43:56.925Z,24.31
2017-06-11T04:44:37.387Z,24.13
2017-06-11T04:45:17.848Z,24.22
2017-06-11T04:45:58.306Z,24.31
2017-06-11T04:46:38.764Z,24.24
2017-06-11T04:47:19.224Z,24.22
2017-06-11T04:47:59.675Z,24.16
2017-06-11T04:48:40.133Z,24.26
2017-06-11T04:49:20.592Z,24.14
2017-06-11T04:50:01.049Z,24.31
2017-06-11T04:50:41.509Z,24.28
2017-06-11T04:51:21.967Z,24.32
2017-06-11T04:52:02.427Z,24.26
2017-06-11T04:52:42.883Z,24.18
2017-06-11T04:53:23.340Z,24.21
2017-06-11T04:54:03.799Z,24.24
2017-06-11T04:54:44.257Z,24.24
2017-06-11T04:55:24.713Z,24.26
2017-06-11T04:56:05.170Z,24.31
2017-06-11T04:56:45.625Z,24.32
2017-06-11T04:57:26.081Z,24.21
2017-06-11T04:58:06.542Z,24.32
2017-06-11T04:58:47.004Z,24.29
2017-06-11T04:59:27.503Z,24.28
2017-06-11T05:00:07.962Z,24.34
2017-06-11T05:00:48.419Z,24.26
2017-06-11T05:01:28.868Z,24.32
2017-06-11T05:03:06.543Z,24.29
2017-06-11T05:03:47.001Z,24.26
2017-06-11T05:04:27.488Z,24.37
2017-06-11T05:05:07.947Z,24.38
2017-06-11T05:05:48.409Z,24.36
2017-06-11T05:06:28.852Z,24.34
2017-06-11T05:07:09.314Z,24.38
2017-06-11T05:07:49.772Z,24.43
2017-06-11T05:08:30.229Z,24.38
2017-06-11T05:09:10.690Z,24.36
2017-06-11T05:09:51.150Z,24.34
2017-06-11T05:10:31.602Z,24.37
2017-06-11T05:11:12.053Z,24.4
2017-06-11T05:11:52.511Z,24.46
2017-06-11T05:12:32.969Z,24.41
2017-06-11T05:13:13.428Z,24.38
2017-06-11T05:13:53.882Z,24.38
2017-06-11T05:14:34.340Z,24.36
2017-06-11T05:15:14.795Z,24.32
2017-06-11T05:15:55.253Z,24.38
2017-06-11T05:16:35.707Z,24.37
2017-06-11T05:17:16.164Z,24.32
2017-06-11T05:17:56.622Z,24.4
2017-06-11T05:18:37.067Z,24.36
2017-06-11T05:19:17.528Z,24.47
2017-06-11T05:19:57.986Z,24.43
2017-06-11T05:20:38.438Z,24.38
2017-06-11T05:21:18.893Z,24.34
2017-06-11T05:21:59.347Z,24.41
2017-06-11T05:22:39.797Z,24.5
2017-06-11T05:23:20.259Z,24.44
2017-06-11T05:24:00.713Z,24.46
2017-06-11T05:24:41.176Z,24.48
2017-06-11T05:25:21.636Z,24.5
2017-06-11T05:26:02.097Z,24.47
2017-06-11T05:26:42.559Z,24.47
2017-06-11T05:27:23.009Z,24.4
2017-06-11T05:28:03.467Z,24.46
2017-06-11T05:28:43.923Z,24.41
2017-06-11T05:29:24.382Z,24.46
2017-06-11T05:30:04.841Z,24.44
2017-06-11T05:30:45.302Z,24.44
2017-06-11T05:31:25.761Z,24.46
2017-06-11T05:32:06.218Z,24.4
2017-06-11T05:32:46.677Z,24.46
2017-06-11T05:33:27.129Z,24.53
2017-06-11T05:34:07.585Z,24.48
2017-06-11T05:34:48.046Z,24.46
2017-06-11T05:35:28.506Z,24.47
2017-06-11T05:36:08.969Z,24.53
2017-06-11T05:36:49.432Z,24.51
2017-06-11T05:37:29.889Z,24.58
2017-06-11T05:38:10.346Z,24.53
2017-06-11T05:38:50.806Z,24.59
2017-06-11T05:39:31.264Z,24.59
2017-06-11T05:40:11.722Z,24.5
2017-06-11T05:40:52.191Z,24.62
2017-06-11T05:41:32.649Z,24.55
2017-06-11T05:42:13.112Z,24.61
2017-06-11T05:42:53.572Z,24.55
2017-06-11T05:43:34.026Z,24.63
2017-06-11T05:44:14.481Z,24.55
2017-06-11T05:44:54.964Z,24.58
2017-06-11T05:45:35.397Z,24.62
2017-06-11T05:46:15.849Z,24.59
2017-06-11T05:46:56.309Z,24.66
2017-06-11T05:47:36.764Z,24.62
2017-06-11T05:48:17.241Z,24.62
2017-06-11T05:48:57.702Z,24.63
2017-06-11T05:49:38.160Z,24.62
2017-06-11T05:50:18.619Z,24.59
2017-06-11T05:50:59.082Z,24.62
2017-06-11T05:51:39.541Z,24.61
2017-06-11T05:52:19.992Z,24.59
2017-06-11T05:53:00.432Z,24.65
2017-06-11T05:53:40.915Z,24.62
2017-06-11T05:54:21.379Z,24.62
2017-06-11T05:55:01.837Z,24.65
2017-06-11T05:55:42.288Z,24.65
2017-06-11T05:56:22.749Z,24.63
2017-06-11T05:57:03.216Z,24.69
2017-06-11T05:57:43.664Z,24.59
2017-06-11T05:58:24.116Z,24.63
2017-06-11T05:59:04.564Z,24.63
2017-06-11T05:59:45.024Z,24.63
2017-06-11T06:00:25.484Z,24.63
2017-06-11T06:01:05.944Z,24.68
2017-06-11T06:01:46.403Z,24.62
2017-06-11T06:02:26.864Z,24.66
2017-06-11T06:03:07.322Z,24.65
2017-06-11T06:03:47.782Z,24.69
2017-06-11T06:04:28.241Z,24.69
2017-06-11T06:05:08.697Z,24.68
2017-06-11T06:05:49.154Z,24.68
2017-06-11T06:06:29.667Z,24.66
2017-06-11T06:07:10.122Z,24.77
2017-06-11T06:07:50.575Z,24.68
2017-06-11T06:08:31.034Z,24.77
2017-06-11T06:09:11.500Z,24.69
2017-06-11T06:09:51.960Z,24.74
2017-06-11T06:10:32.413Z,24.71
2017-06-11T06:11:12.878Z,24.69
2017-06-11T06:11:53.339Z,24.69
2017-06-11T06:12:33.794Z,24.71
2017-06-11T06:13:14.278Z,24.75
2017-06-11T06:13:54.733Z,24.75
2017-06-11T06:14:35.188Z,24.78
2017-06-11T06:15:15.646Z,24.78
2017-06-11T06:15:56.104Z,24.77
2017-06-11T06:16:36.549Z,24.71
2017-06-11T06:17:17.013Z,24.78
2017-06-11T06:17:57.472Z,24.79
2017-06-11T06:18:37.922Z,24.69
2017-06-11T06:19:18.380Z,24.75
2017-06-11T06:19:58.842Z,24.75
2017-06-11T06:20:39.296Z,24.78
2017-06-11T06:21:19.763Z,24.75
2017-06-11T06:22:00.210Z,24.74
2017-06-11T06:22:40.661Z,24.78
2017-06-11T06:24:18.139Z,24.88
2017-06-11T06:24:58.595Z,24.77
2017-06-11T06:25:39.055Z,24.82
2017-06-11T06:26:19.511Z,24.81
2017-06-11T06:26:59.969Z,24.84
2017-06-11T06:27:40.425Z,24.81
2017-06-11T06:28:20.889Z,24.82
2017-06-11T06:29:01.315Z,24.86
2017-06-11T06:29:41.779Z,24.84
2017-06-11T06:30:22.240Z,24.89
2017-06-11T06:31:02.697Z,24.79
2017-06-11T06:31:43.154Z,24.84
2017-06-11T06:32:23.608Z,24.88
2017-06-11T06:33:04.063Z,24.85
2017-06-11T06:33:44.515Z,25
2017-06-11T06:34:24.994Z,24.89
2017-06-11T06:36:02.535Z,24.99
2017-06-11T06:36:42.980Z,24.94
2017-06-11T06:37:23.440Z,25.01
2017-06-11T06:38:03.898Z,25.01
2017-06-11T06:38:44.349Z,24.97
2017-06-11T06:39:24.809Z,25.03
2017-06-11T06:40:05.266Z,24.97
2017-06-11T06:40:45.720Z,24.94
2017-06-11T06:41:26.179Z,24.99
2017-06-11T06:42:06.633Z,25.06
2017-06-11T06:42:47.086Z,24.96
2017-06-11T06:43:27.599Z,25
2017-06-11T06:44:08.041Z,25.06
2017-06-11T06:44:48.494Z,25
2017-06-11T06:45:28.951Z,24.99
2017-06-11T06:46:09.431Z,25.04
2017-06-11T06:46:49.853Z,25.09
2017-06-11T06:47:30.308Z,25.11
2017-06-11T06:48:10.758Z,25.04
2017-06-11T06:48:51.210Z,25.06
2017-06-11T06:49:31.662Z,25.06
2017-06-11T06:50:12.117Z,25.12
2017-06-11T06:50:52.578Z,25
2017-06-11T06:51:33.021Z,25.03
2017-06-11T06:52:13.468Z,25.03
2017-06-11T06:52:53.927Z,25.07
2017-06-11T06:53:34.385Z,25.01
2017-06-11T06:54:14.839Z,25.04
2017-06-11T06:54:55.295Z,25.01
2017-06-11T06:55:35.754Z,25.09
2017-06-11T06:56:16.214Z,25.04
2017-06-11T06:56:56.667Z,25.01
2017-06-11T06:57:37.130Z,25.04
2017-06-11T06:58:17.604Z,25.14
2017-06-11T06:58:58.060Z,25.12
2017-06-11T06:59:38.517Z,25.06
2017-06-11T07:00:18.975Z,25.12
2017-06-11T07:00:59.432Z,25.11
2017-06-11T07:01:39.889Z,25.11
2017-06-11T07:02:20.361Z,25.19
2017-06-11T07:03:00.816Z,25.09
2017-06-11T07:03:41.275Z,25.22
2017-06-11T07:04:21.737Z,25.15
2017-06-11T07:05:02.194Z,25.15
2017-06-11T07:05:42.651Z,25.16
2017-06-11T07:06:23.107Z,25.21
2017-06-11T07:07:03.559Z,25.24
2017-06-11T07:07:44.017Z,25.19
2017-06-11T07:08:24.476Z,25.18
2017-06-11T07:09:04.934Z,25.19
2017-06-11T07:09:45.390Z,25.22
2017-06-11T07:10:25.845Z,25.24
2017-06-11T07:11:06.302Z,25.21
2017-06-11T07:11:46.762Z,25.25
2017-06-11T07:12:27.216Z,25.21
2017-06-11T07:13:07.671Z,25.36
2017-06-11T07:13:48.131Z,25.25
2017-06-11T07:14:28.585Z,25.21
2017-06-11T07:15:09.045Z,25.22
2017-06-11T07:15:49.501Z,25.29
2017-06-11T07:16:29.957Z,25.25
2017-06-11T07:17:10.417Z,25.26
2017-06-11T07:17:50.876Z,25.33
2017-06-11T07:18:31.337Z,25.37
2017-06-11T07:19:11.800Z,25.37
2017-06-11T07:19:52.246Z,25.39
2017-06-11T07:20:32.702Z,25.36
2017-06-11T07:21:13.159Z,25.39
2017-06-11T07:21:53.622Z,25.37
2017-06-11T07:22:34.073Z,25.43
2017-06-11T07:23:14.532Z,25.43
2017-06-11T07:23:54.985Z,25.43
2017-06-11T07:24:35.436Z,25.54
2017-06-11T07:25:15.907Z,25.48
2017-06-11T07:25:56.383Z,25.49
2017-06-11T07:26:36.827Z,25.41
2017-06-11T07:27:17.295Z,25.52
2017-06-11T07:27:57.755Z,25.55
2017-06-11T07:28:38.212Z,25.52
2017-06-11T07:29:18.668Z,25.52
2017-06-11T07:29:59.146Z,25.55
2017-06-11T07:30:39.598Z,25.58
2017-06-11T07:31:20.105Z,25.55
2017-06-11T07:32:00.566Z,25.54
2017-06-11T07:32:41.032Z,25.54
2017-06-11T07:33:21.486Z,25.61
2017-06-11T07:34:01.945Z,25.59
2017-06-11T07:34:42.406Z,25.61
2017-06-11T07:35:22.862Z,25.62
2017-06-11T07:36:03.312Z,25.63
2017-06-11T07:36:43.772Z,25.67
2017-06-11T07:37:24.247Z,25.52
2017-06-11T07:38:04.698Z,25.62
2017-06-11T07:38:45.160Z,25.7
2017-06-11T07:39:25.618Z,25.59
2017-06-11T07:40:06.072Z,25.61
2017-06-11T07:40:46.534Z,25.67
2017-06-11T07:41:26.984Z,25.63
2017-06-11T07:42:07.443Z,25.63
2017-06-11T07:42:47.928Z,25.66
2017-06-11T07:43:28.351Z,25.66
2017-06-11T07:44:08.816Z,25.66
2017-06-11T07:44:49.278Z,25.63
2017-06-11T07:45:29.712Z,25.73
2017-06-11T07:46:10.195Z,25.7
2017-06-11T07:46:50.645Z,25.78
2017-06-11T07:47:31.103Z,25.74
2017-06-11T07:48:11.554Z,25.76
2017-06-11T07:48:52.011Z,25.74
2017-06-11T07:49:32.466Z,25.74
2017-06-11T07:50:12.919Z,25.78
2017-06-11T07:50:53.379Z,25.81
2017-06-11T07:51:33.824Z,25.73
2017-06-11T07:52:14.282Z,25.71
2017-06-11T07:52:54.736Z,25.74
2017-06-11T07:53:35.193Z,25.76
2017-06-11T07:54:15.650Z,25.81
2017-06-11T07:54:56.114Z,25.83
2017-06-11T07:55:36.556Z,25.85
2017-06-11T07:56:17.015Z,25.81
2017-06-11T07:56:57.469Z,25.86
2017-06-11T07:57:37.926Z,25.81
2017-06-11T07:58:18.384Z,25.85
2017-06-11T07:58:58.839Z,25.81
2017-06-11T07:59:39.300Z,25.91
2017-06-11T08:00:19.750Z,25.86
2017-06-11T08:01:00.208Z,25.85
2017-06-11T08:01:40.668Z,25.95
2017-06-11T08:02:21.129Z,25.89
2017-06-11T08:03:01.585Z,25.88
2017-06-11T08:03:42.045Z,25.91
2017-06-11T08:04:22.497Z,25.93
2017-06-11T08:05:02.952Z,25.92
2017-06-11T08:05:43.417Z,25.91
2017-06-11T08:06:23.861Z,25.95
2017-06-11T08:07:04.310Z,25.93
2017-06-11T08:07:44.759Z,25.99
2017-06-11T08:08:25.207Z,25.92
2017-06-11T08:09:05.662Z,26.03
2017-06-11T08:09:46.123Z,25.86
2017-06-11T08:10:26.581Z,25.98
2017-06-11T08:11:07.054Z,25.98
2017-06-11T08:11:47.521Z,26.03
2017-06-11T08:12:27.962Z,25.95
2017-06-11T08:13:08.412Z,26.03
2017-06-11T08:13:48.871Z,25.98
2017-06-11T08:14:29.327Z,26.01
2017-06-11T08:15:09.783Z,26.06
2017-06-11T08:15:50.246Z,25.98
2017-06-11T08:16:30.711Z,26.01
2017-06-11T08:17:11.156Z,26.03
2017-06-11T08:17:51.602Z,26.07
2017-06-11T08:18:32.048Z,25.99
2017-06-11T08:19:12.506Z,26.13
2017-06-11T08:19:52.963Z,25.99
2017-06-11T08:20:33.426Z,25.99
2017-06-11T08:21:13.891Z,26.03
2017-06-11T08:21:54.346Z,26.04
2017-06-11T08:22:34.799Z,26.01
2017-06-11T08:23:15.257Z,26.06
2017-06-11T08:23:55.716Z,26.06
2017-06-11T08:24:36.172Z,26.13
2017-06-11T08:25:16.634Z,26.18
2017-06-11T08:25:57.090Z,26.13
2017-06-11T08:26:37.554Z,26.18
2017-06-11T08:27:18.017Z,26.13
2017-06-11T08:27:58.456Z,26.18
2017-06-11T08:28:38.914Z,26.1
2017-06-11T08:29:19.368Z,26.26
2017-06-11T08:29:59.839Z,26.26
2017-06-11T08:30:40.301Z,26.3
2017-06-11T08:31:20.758Z,26.3
2017-06-11T08:32:01.216Z,26.31
2017-06-11T08:32:41.671Z,26.27
2017-06-11T08:33:22.117Z,26.3
2017-06-11T08:34:02.602Z,26.36
2017-06-11T08:34:43.062Z,26.31
2017-06-11T08:35:23.518Z,26.3
2017-06-11T08:36:03.972Z,26.31
2017-06-11T08:37:51.770Z,26.34
2017-06-11T08:38:32.226Z,26.33
2017-06-11T08:39:12.734Z,26.36
2017-06-11T08:39:53.205Z,26.34
2017-06-11T08:40:33.692Z,26.37
2017-06-11T08:41:14.196Z,26.33
2017-06-11T08:41:54.655Z,26.36
2017-06-11T08:42:35.112Z,26.39
2017-06-11T08:43:15.568Z,26.37
2017-06-11T08:43:56.020Z,26.41
2017-06-11T08:44:36.476Z,26.49
2017-06-11T08:45:16.934Z,26.48
2017-06-11T08:45:57.387Z,26.45